createdAt,value
2023-03-13T00:01:29.343Z,968.00
2023-03-13T00:05:29.492Z,965.00
2023-03-13T00:09:29.521Z,955.00
2023-03-13T00:13:29.709Z,955.00
2023-03-13T00:17:29.765Z,965.00
2023-03-13T00:21:29.937Z,954.00
2023-03-13T00:25:30.082Z,948.00
2023-03-13T00:29:30.141Z,945.00
2023-03-13T00:33:30.402Z,939.00
2023-03-13T00:37:30.418Z,939.00
2023-03-13T00:41:30.456Z,950.00
2023-03-13T00:45:30.578Z,933.00
2023-03-13T00:49:30.758Z,911.00
2023-03-13T00:53:30.750Z,922.00
2023-03-13T00:57:30.972Z,909.00
2023-03-13T01:01:31.029Z,909.00
2023-03-13T01:05:31.127Z,905.00
2023-03-13T01:09:31.323Z,910.00
2023-03-13T01:13:31.394Z,893.00
2023-03-13T01:17:31.546Z,884.00
2023-03-13T01:21:31.678Z,888.00
2023-03-13T01:25:31.771Z,867.00
2023-03-13T01:29:31.875Z,859.00
2023-03-13T01:33:32.736Z,785.00
2023-03-13T01:37:32.093Z,790.00
2023-03-13T01:41:32.097Z,735.00
2023-03-13T01:45:32.207Z,658.00
2023-03-13T01:49:32.174Z,664.00
2023-03-13T01:53:32.302Z,656.00
2023-03-13T01:57:32.330Z,678.00
2023-03-13T02:01:32.451Z,711.00
2023-03-13T02:05:32.518Z,731.00
2023-03-13T02:09:32.553Z,736.00
2023-03-13T02:13:32.574Z,731.00
2023-03-13T02:17:32.675Z,657.00
2023-03-13T02:21:32.771Z,691.00
2023-03-13T02:25:32.804Z,685.00
2023-03-13T02:29:32.988Z,654.00
2023-03-13T02:33:33.068Z,654.00
2023-03-13T02:37:33.060Z,643.00
2023-03-13T02:41:33.231Z,642.00
2023-03-13T02:45:33.223Z,641.00
2023-03-13T02:49:33.358Z,627.00
2023-03-13T02:53:33.501Z,625.00
2023-03-13T02:57:33.509Z,606.00
2023-03-13T03:01:33.698Z,570.00
2023-03-13T03:05:33.798Z,576.00
2023-03-13T03:09:33.947Z,559.00
2023-03-13T03:13:34.040Z,551.00
2023-03-13T03:17:34.137Z,563.00
2023-03-13T03:21:34.341Z,548.00
2023-03-13T03:25:34.408Z,553.00
2023-03-13T03:29:34.559Z,548.00
2023-03-13T03:33:34.673Z,545.00
2023-03-13T03:37:34.747Z,509.00
2023-03-13T03:41:34.899Z,524.00
2023-03-13T03:45:35.102Z,518.00
2023-03-13T03:49:35.248Z,522.00
2023-03-13T03:53:35.376Z,554.00
2023-03-13T03:57:35.545Z,546.00
2023-03-13T04:01:35.749Z,554.00
2023-03-13T04:05:35.821Z,555.00
2023-03-13T04:09:36.030Z,538.00
2023-03-13T04:13:36.170Z,557.00
2023-03-13T04:17:36.290Z,568.00
2023-03-13T04:21:36.422Z,545.00
2023-03-13T04:25:36.547Z,547.00
2023-03-13T04:29:36.744Z,505.00
2023-03-13T04:33:36.918Z,521.00
2023-03-13T04:37:37.047Z,558.00
2023-03-13T04:41:37.230Z,571.00
2023-03-13T04:45:37.090Z,564.00
2023-03-13T04:49:37.120Z,571.00
2023-03-13T04:53:37.064Z,565.00
2023-03-13T04:57:37.240Z,584.00
2023-03-13T05:01:37.371Z,600.00
2023-03-13T05:05:37.317Z,610.00
2023-03-13T05:09:37.452Z,606.00
2023-03-13T05:13:37.576Z,601.00
2023-03-13T05:17:37.700Z,617.00
2023-03-13T05:21:37.747Z,611.00
2023-03-13T05:25:37.852Z,624.00
2023-03-13T05:29:37.949Z,619.00
2023-03-13T05:33:38.067Z,631.00
2023-03-13T05:37:40.865Z,640.00
2023-03-13T05:41:37.963Z,643.00
2023-03-13T05:45:37.950Z,652.00
2023-03-13T05:49:37.915Z,645.00
2023-03-13T05:53:37.959Z,657.00
2023-03-13T05:57:37.818Z,666.00
2023-03-13T06:01:37.787Z,699.00
2023-03-13T06:05:37.739Z,748.00
2023-03-13T06:09:37.715Z,757.00
2023-03-13T06:13:37.664Z,776.00
2023-03-13T06:17:37.700Z,794.00
2023-03-13T06:21:37.623Z,801.00
2023-03-13T06:25:37.578Z,811.00
2023-03-13T06:29:37.560Z,821.00
2023-03-13T06:33:37.525Z,827.00
2023-03-13T06:37:37.955Z,859.00
2023-03-13T06:41:38.057Z,932.00
2023-03-13T06:45:37.561Z,1018.00
2023-03-13T06:49:37.410Z,1075.00
2023-03-13T06:53:38.064Z,1220.00
2023-03-13T06:57:38.038Z,1337.00
2023-03-13T07:01:37.939Z,1438.00
2023-03-13T07:05:37.713Z,1534.00
2023-03-13T07:09:37.932Z,1618.00
2023-03-13T07:13:37.998Z,1692.00
2023-03-13T07:17:38.462Z,1811.00
2023-03-13T07:21:38.191Z,1887.00
2023-03-13T07:25:38.367Z,1993.00
2023-03-13T07:29:38.902Z,2072.00
2023-03-13T07:33:38.582Z,2154.00
2023-03-13T07:37:38.631Z,2227.00
2023-03-13T07:41:39.991Z,2285.00
2023-03-13T07:45:38.973Z,2334.00
2023-03-13T07:49:39.401Z,2359.00
2023-03-13T07:53:39.520Z,2397.00
2023-03-13T07:57:39.374Z,2448.00
2023-03-13T08:01:39.461Z,2536.00
2023-03-13T08:05:39.554Z,2559.00
2023-03-13T08:09:39.925Z,2596.00
2023-03-13T08:13:39.648Z,2686.00
2023-03-13T08:17:39.817Z,2662.00
2023-03-13T08:21:39.929Z,2668.00
2023-03-13T08:25:39.791Z,2698.00
2023-03-13T08:29:39.923Z,2701.00
2023-03-13T08:33:40.472Z,2715.00
2023-03-13T08:37:40.092Z,2714.00
2023-03-13T08:41:40.564Z,2726.00
2023-03-13T08:45:40.933Z,2632.00
2023-03-13T08:49:40.934Z,2596.00
2023-03-13T08:53:40.670Z,2594.00
2023-03-13T08:57:40.949Z,2591.00
2023-03-13T09:01:40.941Z,2618.00
2023-03-13T09:05:55.193Z,2611.00
2023-03-13T09:09:42.182Z,2625.00
2023-03-13T09:13:41.260Z,2633.00
2023-03-13T09:17:41.323Z,2588.00
2023-03-13T09:21:41.441Z,2591.00
2023-03-13T09:25:41.453Z,2585.00
2023-03-13T09:29:41.537Z,2586.00
2023-03-13T09:33:41.965Z,2555.00
2023-03-13T09:37:41.987Z,2520.00
2023-03-13T09:41:42.427Z,2543.00
2023-03-13T09:45:42.211Z,2812.00
2023-03-13T09:49:42.447Z,2800.00
2023-03-13T09:53:43.049Z,2682.00
2023-03-13T09:57:42.963Z,2563.00
2023-03-13T10:01:42.525Z,2556.00
2023-03-13T10:05:42.437Z,2415.00
2023-03-13T10:09:42.464Z,2248.00
2023-03-13T10:13:42.314Z,1973.00
2023-03-13T10:17:42.296Z,2049.00
2023-03-13T10:21:42.443Z,2004.00
2023-03-13T10:25:42.444Z,1995.00
2023-03-13T10:29:42.176Z,1988.00
2023-03-13T10:33:42.507Z,1973.00
2023-03-13T10:37:42.124Z,1968.00
2023-03-13T10:41:43.083Z,1967.00
2023-03-13T10:45:42.445Z,1973.00
2023-03-13T10:49:42.490Z,1945.00
2023-03-13T10:53:42.468Z,1966.00
2023-03-13T10:57:42.210Z,2018.00
2023-03-13T11:01:42.548Z,2075.00
2023-03-13T11:05:42.329Z,2112.00
2023-03-13T11:09:42.465Z,2104.00
2023-03-13T11:13:42.457Z,1947.00
2023-03-13T11:17:42.996Z,1931.00
2023-03-13T11:21:42.864Z,1883.00
2023-03-13T11:25:43.047Z,1851.00
2023-03-13T11:29:43.053Z,1795.00
2023-03-13T11:33:43.121Z,1784.00
2023-03-13T11:37:43.473Z,1717.00
2023-03-13T11:41:43.545Z,1381.00
2023-03-13T11:45:44.104Z,501.00
2023-03-13T11:49:43.726Z,497.00
2023-03-13T11:53:43.710Z,840.00
2023-03-13T11:57:43.801Z,1362.00
2023-03-13T12:01:46.527Z,1825.00
2023-03-13T12:05:44.012Z,1741.00
2023-03-13T12:09:43.829Z,1837.00
2023-03-13T12:13:43.854Z,1939.00
2023-03-13T12:17:44.024Z,2003.00
2023-03-13T12:21:43.797Z,2089.00
2023-03-13T12:25:43.759Z,1794.00
2023-03-13T12:29:44.307Z,862.00
2023-03-13T12:33:44.100Z,400.00
2023-03-13T12:37:44.016Z,400.00
2023-03-13T12:41:44.093Z,400.00
2023-03-13T12:45:43.639Z,448.00
2023-03-13T12:49:43.536Z,829.00
2023-03-13T12:53:43.559Z,545.00
2023-03-13T12:57:43.554Z,632.00
2023-03-13T13:01:43.452Z,552.00
2023-03-13T13:05:43.635Z,625.00
2023-03-13T13:09:44.038Z,588.00
2023-03-13T13:13:44.011Z,655.00
2023-03-13T13:17:44.116Z,654.00
2023-03-13T13:21:44.298Z,602.00
2023-03-13T13:25:44.578Z,1394.00
2023-03-13T13:29:44.658Z,2095.00
2023-03-13T13:33:44.811Z,2415.00
2023-03-13T13:37:45.856Z,2313.00
2023-03-13T13:41:45.135Z,2400.00
2023-03-13T13:45:45.100Z,2522.00
2023-03-13T13:49:45.157Z,2634.00
2023-03-13T13:53:45.203Z,2768.00
2023-03-13T13:57:45.193Z,2794.00
2023-03-13T14:01:45.473Z,2821.00
2023-03-13T14:05:45.342Z,2887.00
2023-03-13T14:09:45.368Z,2934.00
2023-03-13T14:13:45.446Z,2943.00
2023-03-13T14:17:45.471Z,3003.00
2023-03-13T14:21:45.474Z,2966.00
2023-03-13T14:25:45.609Z,3024.00
2023-03-13T14:29:45.539Z,3058.00
2023-03-13T14:33:45.590Z,3057.00
2023-03-13T14:37:45.865Z,3083.00
2023-03-13T14:41:46.062Z,3098.00
2023-03-13T14:45:46.245Z,3109.00
2023-03-13T14:49:46.288Z,3120.00
2023-03-13T14:53:46.194Z,3127.00
2023-03-13T14:57:46.172Z,3143.00
2023-03-13T15:01:46.135Z,3139.00
2023-03-13T15:05:46.108Z,3115.00
2023-03-13T15:09:46.095Z,3143.00
2023-03-13T15:13:46.095Z,3161.00
2023-03-13T15:17:45.982Z,3187.00
2023-03-13T15:21:45.912Z,3170.00
2023-03-13T15:25:45.910Z,3170.00
2023-03-13T15:29:45.843Z,3165.00
2023-03-13T15:33:45.823Z,3145.00
2023-03-13T15:37:45.802Z,3130.00
2023-03-13T15:41:45.746Z,3153.00
2023-03-13T15:45:45.748Z,3267.00
2023-03-13T15:49:45.668Z,3241.00
2023-03-13T15:53:45.661Z,3124.00
2023-03-13T15:57:46.569Z,3095.00
2023-03-13T16:01:45.835Z,3027.00
2023-03-13T16:05:45.820Z,2937.00
2023-03-13T16:09:45.934Z,2990.00
2023-03-13T16:13:46.028Z,2998.00
2023-03-13T16:17:46.131Z,2941.00
2023-03-13T16:21:46.194Z,2935.00
2023-03-13T16:25:46.417Z,2943.00
2023-03-13T16:29:46.675Z,2926.00
2023-03-13T16:33:46.660Z,2900.00
2023-03-13T16:37:46.745Z,2910.00
2023-03-13T16:41:46.920Z,2941.00
2023-03-13T16:45:47.123Z,2899.00
2023-03-13T16:49:47.756Z,2931.00
2023-03-13T16:53:47.487Z,2944.00
2023-03-13T16:57:47.551Z,2936.00
2023-03-13T17:01:47.679Z,2926.00
2023-03-13T17:05:47.625Z,2908.00
2023-03-13T17:09:47.673Z,2905.00
2023-03-13T17:13:47.663Z,2892.00
2023-03-13T17:17:47.759Z,2877.00
2023-03-13T17:21:47.766Z,2880.00
2023-03-13T17:25:47.848Z,2888.00
2023-03-13T17:29:47.853Z,2877.00
2023-03-13T17:33:47.898Z,2874.00
2023-03-13T17:37:47.926Z,2870.00
2023-03-13T17:41:47.966Z,2858.00
2023-03-13T17:45:48.036Z,2846.00
2023-03-13T17:49:48.067Z,2856.00
2023-03-13T17:53:48.117Z,2844.00
2023-03-13T17:57:48.168Z,2835.00
2023-03-13T18:01:48.350Z,2837.00
2023-03-13T18:05:48.401Z,2823.00
2023-03-13T18:09:48.422Z,2808.00
2023-03-13T18:13:48.549Z,2810.00
2023-03-13T18:17:48.645Z,2805.00
2023-03-13T18:21:48.714Z,2787.00
2023-03-13T18:25:48.789Z,2777.00
2023-03-13T18:29:48.898Z,2774.00
2023-03-13T18:33:49.044Z,2768.00
2023-03-13T18:37:49.111Z,2753.00
2023-03-13T18:41:49.273Z,2762.00
2023-03-13T18:45:49.402Z,2741.00
2023-03-13T18:49:49.477Z,2732.00
2023-03-13T18:53:49.591Z,2713.00
2023-03-13T18:57:49.829Z,2712.00
2023-03-13T19:01:49.994Z,2714.00
2023-03-13T19:05:50.045Z,2699.00
2023-03-13T19:09:50.199Z,2692.00
2023-03-13T19:13:50.334Z,2689.00
2023-03-13T19:17:50.514Z,2676.00
2023-03-13T19:21:50.686Z,2666.00
2023-03-13T19:25:50.834Z,2646.00
2023-03-13T19:29:51.033Z,2649.00
2023-03-13T19:33:51.119Z,2643.00
2023-03-13T19:37:51.322Z,2653.00
2023-03-13T19:41:51.487Z,2636.00
2023-03-13T19:45:51.665Z,2625.00
2023-03-13T19:49:51.801Z,2631.00
2023-03-13T19:53:51.976Z,2624.00
2023-03-13T19:57:52.129Z,2608.00
2023-03-13T20:01:52.411Z,2622.00
2023-03-13T20:05:52.512Z,2612.00
2023-03-13T20:09:52.700Z,2614.00
2023-03-13T20:13:52.857Z,2600.00
2023-03-13T20:17:53.056Z,2595.00
2023-03-13T20:21:53.190Z,2591.00
2023-03-13T20:25:53.401Z,2577.00
2023-03-13T20:29:53.588Z,2572.00
2023-03-13T20:33:53.801Z,2553.00
2023-03-13T20:37:54.023Z,2541.00
2023-03-13T20:41:54.251Z,2541.00
2023-03-13T20:45:54.173Z,2506.00
2023-03-13T20:49:54.124Z,2508.00
2023-03-13T20:53:54.087Z,2506.00
2023-03-13T20:57:54.123Z,2496.00
2023-03-13T21:01:54.071Z,2500.00
2023-03-13T21:05:53.970Z,2482.00
2023-03-13T21:09:53.969Z,2489.00
2023-03-13T21:13:53.943Z,2475.00
2023-03-13T21:17:53.868Z,2472.00
2023-03-13T21:21:53.826Z,2473.00
2023-03-13T21:25:53.961Z,2455.00
2023-03-13T21:29:54.066Z,2447.00
2023-03-13T21:33:54.267Z,2434.00
2023-03-13T21:37:54.494Z,2431.00
2023-03-13T21:41:54.677Z,2425.00
2023-03-13T21:45:54.888Z,2421.00
2023-03-13T21:49:55.127Z,2399.00
2023-03-13T21:53:55.288Z,2387.00
2023-03-13T21:57:55.517Z,2381.00
2023-03-13T22:01:55.508Z,2359.00
2023-03-13T22:05:55.434Z,2370.00
2023-03-13T22:09:55.415Z,2367.00
2023-03-13T22:13:55.344Z,2349.00
2023-03-13T22:17:55.322Z,2350.00
2023-03-13T22:21:55.310Z,2342.00
2023-03-13T22:25:55.203Z,2335.00
2023-03-13T22:29:55.210Z,2325.00
2023-03-13T22:33:55.158Z,2326.00
2023-03-13T22:37:55.096Z,2308.00
2023-03-13T22:41:55.250Z,2305.00
2023-03-13T22:45:55.219Z,2301.00
2023-03-13T22:49:55.370Z,2291.00
2023-03-13T22:53:55.548Z,2293.00
2023-03-13T22:57:55.696Z,2273.00
2023-03-13T23:01:56.238Z,2280.00
2023-03-13T23:05:56.051Z,2266.00
2023-03-13T23:09:56.162Z,2262.00
2023-03-13T23:13:56.490Z,2250.00
2023-03-13T23:17:56.485Z,2245.00
2023-03-13T23:21:56.578Z,2235.00
2023-03-13T23:25:56.744Z,2225.00
2023-03-13T23:29:56.754Z,2227.00
2023-03-13T23:33:56.915Z,2218.00
2023-03-13T23:37:57.039Z,2212.00
2023-03-13T23:41:57.145Z,2206.00
2023-03-13T23:45:57.248Z,2198.00
2023-03-13T23:49:57.416Z,2187.00
2023-03-13T23:53:57.507Z,2173.00
2023-03-13T23:57:57.652Z,2177.00
